Time;durP1;ratioP1;P1;durP2;ratioP2;P2;SDS_P1;SDS_P2;PMS_P1;PMS_P2;Temp;Humidity;BMP_temperature;BMP_pressure;BME280_temperature;BME280_humidity;BME280_pressure;Samples;Min_cycle;Max_cycle;Signal;HPM_P1;HPM_P2
2023/08/14 00:00:36;;;;;;;5.00;2.60;;;;;;;22.25;73.01;100547.81;4101074;28;20038;-63
2023/08/14 00:02:39;;;;;;;5.28;2.38;;;;;;;22.24;72.91;100551.38;4091881;28;20031;-63
2023/08/14 00:04:42;;;;;;;5.05;2.30;;;;;;;22.21;73.02;100548.81;4095926;28;20046;-63
2023/08/14 00:06:45;;;;;;;3.47;2.15;;;;;;;22.18;73.07;100541.00;4081224;29;20482;-63
2023/08/14 00:08:48;;;;;;;4.88;2.47;;;;;;;22.17;73.16;100552.50;4083349;29;20135;-63
2023/08/14 00:10:51;;;;;;;4.43;2.35;;;;;;;22.18;72.97;100541.00;4099759;28;20122;-63
2023/08/14 00:12:55;;;;;;;6.50;2.53;;;;;;;22.20;73.04;100543.59;4097780;28;20046;-64
2023/08/14 00:14:58;;;;;;;5.13;2.65;;;;;;;22.14;72.92;100545.50;4099052;28;20070;-63
2023/08/14 00:17:01;;;;;;;5.55;2.50;;;;;;;22.17;73.01;100541.03;4099893;28;20078;-63
2023/08/14 00:19:04;;;;;;;5.38;3.05;;;;;;;22.17;73.04;100549.00;4085102;29;20493;-63
2023/08/14 00:21:07;;;;;;;3.27;2.10;;;;;;;22.17;73.40;100549.00;4097227;28;20047;-64
2023/08/14 00:23:28;;;;;;;9.02;2.30;;;;;;;22.15;73.37;100546.34;4100176;28;20058;-63
2023/08/14 00:25:31;;;;;;;5.93;2.80;;;;;;;22.13;73.54;100554.34;4102228;28;20572;-63
2023/08/14 00:27:34;;;;;;;4.78;2.70;;;;;;;22.12;73.56;100551.75;4097979;28;20501;-62
2023/08/14 00:29:38;;;;;;;5.40;2.58;;;;;;;22.13;73.67;100558.78;4082602;29;20131;-62
2023/08/14 00:31:40;;;;;;;;;;;;;;;22.01;74.09;100553.91;4095246;28;20043;-63
2023/08/14 00:33:43;;;;;;;4.68;2.40;;;;;;;22.03;73.97;100562.66;4094487;28;19922;-62
2023/08/14 00:35:45;;;;;;;5.95;3.15;;;;;;;22.06;73.73;100555.47;4101919;28;20507;-62
2023/08/14 00:37:49;;;;;;;5.40;2.88;;;;;;;22.05;73.94;100552.88;4084024;29;20036;-62
2023/08/14 00:39:52;;;;;;;4.88;2.60;;;;;;;22.04;73.86;100556.44;4098565;28;20046;-62
2023/08/14 00:41:55;;;;;;;3.90;2.45;;;;;;;22.07;73.78;100551.06;4080795;29;20175;-62
2023/08/14 00:43:57;;;;;;;5.18;2.35;;;;;;;22.07;73.98;100551.91;4075309;29;20047;-62
2023/08/14 00:46:03;;;;;;;7.07;2.90;;;;;;;22.09;73.68;100547.44;4080159;29;20597;-62
2023/08/14 00:48:07;;;;;;;4.65;2.55;;;;;;;22.08;73.93;100547.50;4083374;29;20541;-62
2023/08/14 00:50:11;;;;;;;5.65;2.85;;;;;;;22.12;73.96;100549.09;4081872;29;20395;-62
2023/08/14 00:52:15;;;;;;;5.45;2.53;;;;;;;22.09;73.85;100547.44;4094769;28;20047;-62
2023/08/14 00:54:18;;;;;;;6.78;2.22;;;;;;;22.10;74.00;100545.66;4083545;29;20528;-62
2023/08/14 00:56:21;;;;;;;4.55;2.42;;;;;;;22.13;74.20;100546.41;4097796;28;20035;-62
2023/08/14 00:58:25;;;;;;;3.95;2.33;;;;;;;22.13;74.26;100533.16;4071477;29;20134;-62
2023/08/14 01:00:29;;;;;;;6.45;2.85;;;;;;;22.17;74.08;100541.03;4064922;29;20044;-62
2023/08/14 01:02:34;;;;;;;2.80;1.92;;;;;;;22.18;74.24;100541.00;4079966;29;20047;-62
2023/08/14 01:04:37;;;;;;;5.95;2.53;;;;;;;22.19;74.13;100537.41;4085091;29;20040;-62
2023/08/14 01:06:40;;;;;;;6.03;2.72;;;;;;;22.20;74.30;100539.16;4094927;28;20109;-62
2023/08/14 01:08:43;;;;;;;6.13;2.97;;;;;;;22.22;74.21;100550.53;4093863;28;20039;-63
2023/08/14 01:10:55;;;;;;;4.60;2.55;;;;;;;22.23;74.25;100539.03;4078929;29;20561;-62
2023/08/14 01:13:09;;;;;;;5.95;3.40;;;;;;;22.26;74.13;100536.28;4082604;29;20040;-62
2023/08/14 01:15:16;;;;;;;3.85;2.75;;;;;;;22.24;74.39;100542.53;4093597;28;20131;-62
2023/08/14 01:17:26;;;;;;;5.68;3.00;;;;;;;22.20;74.48;100541.78;4097656;28;20039;-62
2023/08/14 01:19:37;;;;;;;5.03;2.50;;;;;;;22.21;74.66;100542.66;4096390;28;20771;-62
2023/08/14 01:21:45;;;;;;;4.72;2.65;;;;;;;22.21;74.56;100543.53;4091446;28;20036;-62
2023/08/14 01:24:06;;;;;;;5.05;2.75;;;;;;;22.25;74.39;100544.28;4102405;28;20138;-62
2023/08/14 01:26:11;;;;;;;6.90;3.40;;;;;;;22.29;73.61;100543.28;4100864;28;20042;-62
2023/08/14 01:28:14;;;;;;;7.28;4.55;;;;;;;22.38;71.96;100539.47;4081649;29;20066;-62
2023/08/14 01:30:17;;;;;;;6.70;3.83;;;;;;;22.40;71.20;100538.53;4098968;28;20493;-62
2023/08/14 01:32:20;;;;;;;9.67;4.20;;;;;;;22.39;71.24;100533.28;4080283;29;20055;-62
2023/08/14 01:34:24;;;;;;;9.20;4.43;;;;;;;22.46;70.66;100537.44;4082246;29;20335;-62
2023/08/14 01:36:32;;;;;;;7.63;3.80;;;;;;;22.49;70.35;100534.69;4079891;29;20044;-62
2023/08/14 01:38:40;;;;;;;4.72;3.08;;;;;;;22.50;70.12;100533.75;4095703;29;20044;-62
2023/08/14 01:40:50;;;;;;;11.00;4.55;;;;;;;22.52;69.79;100534.59;4099009;28;20110;-62
2023/08/14 01:43:00;;;;;;;10.35;4.30;;;;;;;22.53;69.79;100535.44;4079759;29;20047;-62
2023/08/14 01:45:10;;;;;;;5.90;3.03;;;;;;;22.48;70.22;100543.56;4079392;29;20047;-62
2023/08/14 01:47:16;;;;;;;6.07;3.60;;;;;;;22.44;70.43;100537.50;4083194;29;20039;-62
2023/08/14 01:49:20;;;;;;;6.18;3.35;;;;;;;22.50;70.35;100525.81;4090770;28;20027;-62
2023/08/14 01:51:25;;;;;;;7.45;3.63;;;;;;;22.48;70.46;100517.91;4092167;28;20046;-61
2023/08/14 01:53:28;;;;;;;7.15;3.10;;;;;;;22.55;69.90;100510.63;4090562;28;20042;-62
2023/08/14 01:55:31;;;;;;;6.65;3.22;;;;;;;22.53;69.98;100517.78;4085641;28;20734;-62
2023/08/14 01:57:34;;;;;;;7.40;3.50;;;;;;;22.48;70.24;100517.91;4085983;29;20035;-62
2023/08/14 01:59:42;;;;;;;7.55;3.38;;;;;;;22.45;70.19;100522.47;4083482;29;20429;-62
2023/08/14 02:01:45;;;;;;;8.35;3.55;;;;;;;22.47;70.10;100517.97;4080351;29;20043;-62
2023/08/14 02:03:48;;;;;;;5.43;2.70;;;;;;;22.49;70.19;100516.16;4080874;29;20427;-62
2023/08/14 02:05:50;;;;;;;6.47;3.13;;;;;;;22.46;70.40;100522.41;4096423;28;20039;-62
2023/08/14 02:07:53;;;;;;;4.22;3.05;;;;;;;22.49;70.31;100524.94;4079006;29;20589;-62
2023/08/14 02:09:56;;;;;;;4.82;3.10;;;;;;;22.56;69.53;100525.63;4079847;29;20036;-62
2023/08/14 02:12:00;;;;;;;6.18;2.60;;;;;;;22.56;69.32;100525.63;4095437;28;20058;-62
2023/08/14 02:14:03;;;;;;;6.75;2.92;;;;;;;22.56;69.26;100533.56;4095941;28;20051;-62
2023/08/14 02:16:08;;;;;;;8.00;2.63;;;;;;;22.60;69.59;100535.16;4098009;28;20505;-62
2023/08/14 02:18:10;;;;;;;;;;;;;;;22.50;69.54;100533.75;4099418;28;20387;-62
2023/08/14 02:20:13;;;;;;;8.88;3.22;;;;;;;22.53;69.49;100531.03;4074129;29;20179;-62
2023/08/14 02:22:16;;;;;;;6.65;3.05;;;;;;;22.67;68.69;100515.47;4075873;29;20040;-62
2023/08/14 02:24:19;;;;;;;6.47;3.03;;;;;;;22.67;68.25;100515.47;4092603;28;20039;-62
2023/08/14 02:26:22;;;;;;;9.23;2.70;;;;;;;22.65;67.98;100509.38;4079194;29;20067;-62
2023/08/14 02:28:25;;;;;;;5.63;2.60;;;;;;;22.67;67.56;100510.19;4080135;29;20167;-62
2023/08/14 02:30:28;;;;;;;8.52;2.83;;;;;;;22.55;68.27;100505.31;4097460;28;20043;-62
2023/08/14 02:32:32;;;;;;;6.95;2.58;;;;;;;22.52;68.28;100496.63;4081833;29;20169;-63
2023/08/14 02:34:44;;;;;;;7.00;2.42;;;;;;;22.49;67.81;100498.47;4079650;29;20506;-62
2023/08/14 02:36:46;;;;;;;5.50;2.78;;;;;;;22.42;67.96;100496.09;4095765;28;20039;-62
2023/08/14 02:38:50;;;;;;;4.97;2.03;;;;;;;22.42;68.04;100501.38;4100328;28;20533;-62
2023/08/14 02:40:53;;;;;;;7.15;2.70;;;;;;;22.41;67.57;100483.75;4100784;28;20042;-62
2023/08/14 02:42:59;;;;;;;5.43;2.28;;;;;;;22.38;67.71;100494.44;4093535;28;20047;-62
2023/08/14 02:45:02;;;;;;;5.15;2.58;;;;;;;22.40;67.62;100477.59;4098115;28;20042;-62
2023/08/14 02:47:04;;;;;;;5.07;2.45;;;;;;;22.44;67.20;100481.00;4078620;29;20055;-62
2023/08/14 02:49:09;;;;;;;4.55;2.38;;;;;;;22.35;67.47;100486.63;4078809;29;20050;-62
2023/08/14 02:51:11;;;;;;;6.30;2.67;;;;;;;22.30;68.09;100484.94;4079008;29;20099;-62
2023/08/14 02:53:14;;;;;;;4.00;2.20;;;;;;;22.28;68.49;100485.91;4081314;29;20078;-62
2023/08/14 02:55:17;;;;;;;6.32;2.47;;;;;;;22.31;67.72;100477.84;4093777;29;20520;-62
2023/08/14 02:57:20;;;;;;;5.00;2.20;;;;;;;22.34;67.77;100471.63;4096703;28;20043;-62
2023/08/14 02:59:23;;;;;;;6.68;2.45;;;;;;;22.30;67.48;100469.06;4083268;29;20570;-62
2023/08/14 03:01:26;;;;;;;3.08;1.95;;;;;;;22.24;67.73;100469.28;4080317;29;20047;-62
2023/08/14 03:03:29;;;;;;;8.40;2.75;;;;;;;22.23;67.97;100475.47;4068655;29;20459;-62
2023/08/14 03:05:34;;;;;;;4.78;2.10;;;;;;;22.19;68.29;100471.19;4079685;29;20036;-62
2023/08/14 03:07:37;;;;;;;6.07;2.08;;;;;;;22.18;68.47;100468.59;4081240;29;20256;-62
2023/08/14 03:09:39;;;;;;;3.47;2.00;;;;;;;22.15;68.64;100477.50;4080139;29;20075;-62
2023/08/14 03:11:45;;;;;;;4.32;2.42;;;;;;;22.15;68.80;100469.56;4098753;28;20386;-62
2023/08/14 03:13:48;;;;;;;6.50;2.63;;;;;;;22.18;68.65;100466.84;4079625;29;20084;-62
2023/08/14 03:15:51;;;;;;;5.22;2.22;;;;;;;22.19;68.64;100457.97;4097123;28;20478;-62
2023/08/14 03:17:54;;;;;;;3.53;2.40;;;;;;;22.14;68.68;100462.56;4080211;29;20226;-62
2023/08/14 03:19:57;;;;;;;4.93;2.28;;;;;;;22.08;68.82;100462.78;4082239;29;20545;-62
2023/08/14 03:22:01;;;;;;;4.72;2.20;;;;;;;22.06;69.10;100467.25;4084038;29;20035;-63
2023/08/14 03:24:04;;;;;;;6.88;2.50;;;;;;;22.04;69.32;100463.78;4100837;28;20043;-62
2023/08/14 03:26:09;;;;;;;6.80;2.90;;;;;;;22.04;69.10;100459.34;4085790;29;20462;-64
2023/08/14 03:28:12;;;;;;;5.90;2.53;;;;;;;22.06;68.82;100461.94;4082394;29;20429;-62
2023/08/14 03:30:15;;;;;;;5.57;2.63;;;;;;;22.05;69.27;100454.91;4075265;29;20183;-62
2023/08/14 03:32:18;;;;;;;4.82;2.33;;;;;;;22.03;69.34;100456.75;4065606;29;20388;-62
2023/08/14 03:34:21;;;;;;;4.10;2.55;;;;;;;22.02;69.23;100457.66;4098716;28;20039;-62
2023/08/14 03:36:24;;;;;;;3.22;2.05;;;;;;;21.99;69.61;100460.41;4066009;29;20036;-62
2023/08/14 03:38:29;;;;;;;16.65;2.85;;;;;;;21.98;69.83;100454.28;4082595;29;20079;-62
2023/08/14 03:40:32;;;;;;;7.68;2.60;;;;;;;21.96;70.03;100464.91;4095275;28;20058;-62
2023/08/14 03:42:35;;;;;;;6.07;2.30;;;;;;;21.93;70.59;100457.06;4094031;28;20043;-62
2023/08/14 03:44:38;;;;;;;8.05;2.60;;;;;;;21.91;71.02;100452.75;4082207;29;20141;-62
2023/08/14 03:46:41;;;;;;;6.78;2.50;;;;;;;21.89;71.08;100452.78;4080936;29;20074;-62
2023/08/14 03:48:44;;;;;;;6.40;2.53;;;;;;;21.85;71.29;100443.22;4083890;29;20035;-62
2023/08/14 03:50:47;;;;;;;8.05;2.72;;;;;;;21.83;71.39;100455.66;4081018;28;20047;-62
2023/08/14 03:52:50;;;;;;;6.18;2.35;;;;;;;21.81;71.63;100451.31;4095366;28;20126;-62
2023/08/14 03:54:54;;;;;;;4.85;2.45;;;;;;;21.80;71.47;100455.75;4095295;28;20043;-62
2023/08/14 03:56:57;;;;;;;;;;;;;;;21.66;71.79;100453.53;4092379;28;20063;-62
2023/08/14 03:59:00;;;;;;;7.15;2.50;;;;;;;21.66;72.09;100458.81;4097332;28;19929;-62
2023/08/14 04:01:03;;;;;;;5.05;2.70;;;;;;;21.68;72.25;100456.13;4074410;29;20131;-62
2023/08/14 04:03:06;;;;;;;6.30;2.53;;;;;;;21.69;72.08;100473.75;4081976;29;20071;-62
2023/08/14 04:05:09;;;;;;;6.78;3.03;;;;;;;21.69;72.34;100484.31;4082102;29;20040;-62
2023/08/14 04:07:12;;;;;;;6.93;3.17;;;;;;;21.67;72.47;100481.72;4099085;28;20038;-62
2023/08/14 04:09:15;;;;;;;4.13;2.38;;;;;;;21.66;72.52;100487.94;4099175;28;20391;-62
2023/08/14 04:11:20;;;;;;;5.30;2.50;;;;;;;21.64;72.59;100484.47;4097695;28;20166;-62
2023/08/14 04:13:21;;;;;;;;;;;;;;;21.54;72.75;100491.81;4082766;29;20064;-62
2023/08/14 04:15:25;;;;;;;5.03;2.47;;;;;;;21.58;72.94;100492.59;4102522;28;19930;-62
2023/08/14 04:17:27;;;;;;;8.38;2.50;;;;;;;21.59;72.80;100492.53;4082179;29;20039;-62
2023/08/14 04:19:31;;;;;;;4.65;2.58;;;;;;;21.59;72.81;100489.88;4082013;29;20043;-62
2023/08/14 04:21:33;;;;;;;5.78;2.25;;;;;;;21.60;72.88;100496.91;4099738;28;20047;-62
2023/08/14 04:23:35;;;;;;;7.18;2.92;;;;;;;21.60;72.94;100506.66;4085259;29;20043;-62
2023/08/14 04:25:38;;;;;;;7.65;2.65;;;;;;;21.60;73.17;100486.34;4066625;29;20319;-62
2023/08/14 04:27:42;;;;;;;6.97;2.65;;;;;;;21.64;73.10;100488.88;4079258;29;20044;-62
2023/08/14 04:29:45;;;;;;;6.63;2.80;;;;;;;21.60;73.38;100488.97;4082684;29;20095;-62
2023/08/14 04:31:48;;;;;;;4.55;2.50;;;;;;;21.61;73.66;100490.72;4080809;29;20071;-62
2023/08/14 04:33:52;;;;;;;5.00;2.40;;;;;;;21.61;73.70;100489.84;4085846;29;20078;-62
2023/08/14 04:35:56;;;;;;;9.90;2.58;;;;;;;21.61;74.00;100495.13;4081613;29;20050;-62
2023/08/14 04:37:58;;;;;;;4.68;2.40;;;;;;;21.62;74.33;100504.81;4075863;29;20047;-62
2023/08/14 04:40:01;;;;;;;5.72;2.33;;;;;;;21.66;74.30;100506.44;4091993;28;20050;-62
2023/08/14 04:42:05;;;;;;;6.30;2.33;;;;;;;21.65;74.22;100503.84;4080747;29;20668;-62
2023/08/14 04:44:09;;;;;;;5.25;2.50;;;;;;;21.67;74.20;100502.00;4096257;28;20050;-62
2023/08/14 04:46:29;;;;;;;9.13;2.85;;;;;;;21.68;73.90;100507.25;4097861;28;20112;-62
2023/08/14 04:48:38;;;;;;;5.70;2.42;;;;;;;21.69;73.95;100502.84;4084515;29;20486;-62
2023/08/14 04:50:41;;;;;;;9.00;3.78;;;;;;;21.68;73.62;100493.16;4082172;29;20036;-62
2023/08/14 04:52:44;;;;;;;6.95;2.53;;;;;;;21.59;74.14;100504.91;4095957;28;20039;-62
2023/08/14 04:54:47;;;;;;;4.90;2.60;;;;;;;21.59;74.28;100505.75;4083716;29;20087;-62
2023/08/14 04:56:50;;;;;;;7.50;2.53;;;;;;;21.60;74.33;100509.28;4080782;29;20413;-62
2023/08/14 04:58:53;;;;;;;7.43;2.70;;;;;;;21.63;74.24;100509.19;4078758;29;20048;-63
2023/08/14 05:00:59;;;;;;;6.68;2.90;;;;;;;21.61;74.24;100503.94;4079290;29;20035;-63
2023/08/14 05:03:03;;;;;;;4.38;2.30;;;;;;;21.63;74.33;100503.03;4095484;28;20043;-63
2023/08/14 05:05:06;;;;;;;8.32;2.80;;;;;;;21.69;74.25;100505.50;4066220;29;20051;-63
2023/08/14 05:07:09;;;;;;;5.93;2.20;;;;;;;21.70;74.18;100486.94;4093310;28;20047;-63
2023/08/14 05:09:12;;;;;;;5.32;2.60;;;;;;;21.72;74.26;100495.66;4082073;29;20032;-62
2023/08/14 05:11:29;;;;;;;8.55;2.92;;;;;;;21.73;74.29;100491.25;4094560;28;20031;-63
2023/08/14 05:13:32;;;;;;;6.90;2.53;;;;;;;21.74;74.07;100477.09;4081767;29;20122;-62
2023/08/14 05:15:34;;;;;;;11.43;3.22;;;;;;;21.78;73.94;100484.03;4099619;28;20097;-62
2023/08/14 05:17:40;;;;;;;4.38;2.35;;;;;;;21.74;74.19;100487.69;4073862;29;20097;-63
2023/08/14 05:19:43;;;;;;;6.10;2.47;;;;;;;21.74;74.20;100488.56;4091898;28;20043;-63
2023/08/14 05:21:46;;;;;;;8.82;2.60;;;;;;;21.79;74.32;100483.97;4080125;29;20498;-62
2023/08/14 05:23:50;;;;;;;7.05;2.28;;;;;;;21.86;74.27;100481.13;4094921;28;20035;-62
2023/08/14 05:25:52;;;;;;;6.13;2.47;;;;;;;21.88;74.29;100469.56;4100138;28;20070;-62
2023/08/14 05:27:55;;;;;;;8.00;2.60;;;;;;;21.91;74.29;100464.19;4095970;28;20103;-63
2023/08/14 05:29:58;;;;;;;9.13;2.83;;;;;;;21.96;73.89;100471.97;4080755;29;20130;-63
2023/08/14 05:32:01;;;;;;;7.43;3.20;;;;;;;21.98;74.08;100462.22;4097163;28;20130;-62
2023/08/14 05:34:05;;;;;;;6.30;2.97;;;;;;;22.01;74.02;100469.19;4098867;28;20046;-62
2023/08/14 05:36:08;;;;;;;5.80;2.45;;;;;;;21.99;74.09;100466.59;4100189;28;20409;-62
2023/08/14 05:38:11;;;;;;;5.30;2.60;;;;;;;22.04;74.05;100471.72;4083851;29;20123;-63
2023/08/14 05:40:14;;;;;;;8.63;2.83;;;;;;;22.02;74.23;100482.38;4096035;28;20417;-62
2023/08/14 05:42:17;;;;;;;8.23;2.97;;;;;;;22.06;73.93;100478.69;4084884;29;20039;-62
2023/08/14 05:44:20;;;;;;;5.03;3.00;;;;;;;22.12;73.59;100480.25;4082123;29;20039;-62
2023/08/14 05:46:24;;;;;;;6.07;2.90;;;;;;;22.16;73.25;100479.25;4085178;29;20040;-62
2023/08/14 05:48:27;;;;;;;9.35;2.97;;;;;;;22.22;73.42;100473.75;4096507;28;22108;-63
2023/08/14 05:50:31;;;;;;;6.95;3.33;;;;;;;22.31;73.00;100473.44;4096124;28;20397;-62
2023/08/14 05:52:34;;;;;;;6.00;3.22;;;;;;;22.39;72.25;100467.91;4097201;28;20090;-62
2023/08/14 05:54:37;;;;;;;6.80;3.20;;;;;;;22.47;71.76;100462.34;4081272;29;20039;-63
2023/08/14 05:56:40;;;;;;;7.57;3.50;;;;;;;22.54;71.08;100461.19;4079799;29;20056;-63
2023/08/14 05:58:42;;;;;;;7.20;3.03;;;;;;;22.55;71.66;100460.28;4072153;29;20767;-63
2023/08/14 06:00:45;;;;;;;7.72;3.30;;;;;;;22.64;71.80;100454.66;4079765;29;20127;-63
2023/08/14 06:02:47;;;;;;;7.95;3.17;;;;;;;22.68;71.36;100455.41;4092772;28;20090;-63
2023/08/14 06:04:50;;;;;;;9.88;3.40;;;;;;;22.77;70.94;100464.81;4082547;29;20040;-63
2023/08/14 06:06:54;;;;;;;5.13;3.03;;;;;;;22.78;71.01;100471.81;4079502;29;20046;-63
2023/08/14 06:08:57;;;;;;;9.10;3.22;;;;;;;22.80;70.77;100464.72;4097744;28;20147;-63
2023/08/14 06:11:03;;;;;;;10.65;3.83;;;;;;;22.89;70.98;100466.16;4100792;28;20134;-63
2023/08/14 06:13:08;;;;;;;6.18;3.05;;;;;;;22.98;70.79;100464.03;4100409;28;20039;-63
2023/08/14 06:15:12;;;;;;;3.92;2.70;;;;;;;23.01;70.23;100453.31;4081582;29;20054;-63
2023/08/14 06:17:15;;;;;;;5.20;2.97;;;;;;;23.06;70.00;100465.53;4096152;28;20043;-63
2023/08/14 06:19:18;;;;;;;5.15;3.08;;;;;;;23.04;70.15;100454.09;4080952;29;20094;-62
2023/08/14 06:21:21;;;;;;;8.82;3.58;;;;;;;23.06;69.93;100449.63;4080667;28;20063;-63
2023/08/14 06:23:25;;;;;;;5.25;3.10;;;;;;;23.14;69.88;100429.00;4079640;29;20511;-63
2023/08/14 06:25:31;;;;;;;8.02;3.67;;;;;;;23.21;68.88;100422.53;4096435;28;20067;-63
2023/08/14 06:27:34;;;;;;;10.20;3.30;;;;;;;23.21;68.77;100429.63;4095726;28;20035;-63
2023/08/14 06:29:36;;;;;;;5.10;2.70;;;;;;;23.20;69.06;100438.50;4098165;28;20070;-62
2023/08/14 06:31:39;;;;;;;5.85;3.08;;;;;;;23.24;69.07;100461.34;4066157;29;20475;-63
2023/08/14 06:33:44;;;;;;;6.68;3.90;;;;;;;23.24;69.13;100459.53;4099120;28;20043;-63
2023/08/14 06:35:48;;;;;;;3.42;2.60;;;;;;;23.29;69.48;100460.25;4071665;29;20494;-63
2023/08/14 06:37:50;;;;;;;8.90;3.50;;;;;;;23.31;69.86;100455.72;4100140;28;20552;-63
2023/08/14 06:39:54;;;;;;;4.78;2.85;;;;;;;23.35;69.50;100446.72;4097162;28;20486;-63
2023/08/14 06:41:56;;;;;;;;;;;;;;;23.34;69.17;100447.66;4094259;28;20031;-63
2023/08/14 06:44:00;;;;;;;5.32;2.80;;;;;;;23.41;69.07;100444.75;4079746;29;19929;-62
2023/08/14 06:46:03;;;;;;;6.72;3.40;;;;;;;23.46;68.67;100432.19;4097261;28;20043;-63
2023/08/14 06:48:07;;;;;;;4.90;2.90;;;;;;;23.52;68.63;100440.78;4096800;28;20051;-63
2023/08/14 06:50:10;;;;;;;5.82;3.10;;;;;;;23.63;68.39;100432.38;4098493;28;20078;-63
2023/08/14 06:52:13;;;;;;;5.20;2.92;;;;;;;23.69;69.03;100423.28;4094722;28;20101;-63
2023/08/14 06:54:16;;;;;;;6.63;2.90;;;;;;;23.73;68.97;100429.31;4079971;29;20498;-63
2023/08/14 06:56:21;;;;;;;5.82;3.20;;;;;;;23.82;68.39;100428.97;4102681;28;20039;-63
2023/08/14 06:58:23;;;;;;;;;;;;;;;23.79;68.34;100429.94;4078070;29;20052;-62
2023/08/14 07:00:26;;;;;;;5.32;2.92;;;;;;;23.83;68.62;100435.97;4098199;28;19968;-62
2023/08/14 07:02:29;;;;;;;6.15;3.10;;;;;;;23.88;68.36;100442.84;4100084;28;20509;-62
2023/08/14 07:04:32;;;;;;;7.13;3.88;;;;;;;23.92;68.07;100445.38;4084952;29;20126;-63
2023/08/14 07:06:35;;;;;;;14.93;4.28;;;;;;;24.03;67.72;100452.00;4100355;28;20654;-62
2023/08/14 07:08:39;;;;;;;6.13;3.10;;;;;;;24.15;67.56;100442.66;4101083;28;20505;-63
2023/08/14 07:10:41;;;;;;;7.07;3.35;;;;;;;24.26;67.37;100444.84;4068875;29;20083;-62
2023/08/14 07:12:46;;;;;;;10.98;3.58;;;;;;;24.32;67.49;100439.25;4101518;28;20086;-62
2023/08/14 07:14:48;;;;;;;4.90;3.22;;;;;;;24.36;67.58;100438.19;4097828;28;20130;-62
2023/08/14 07:16:51;;;;;;;6.15;3.88;;;;;;;24.31;67.30;100437.53;4082539;29;20063;-62
2023/08/14 07:18:55;;;;;;;8.85;3.42;;;;;;;24.36;67.35;100438.19;4097064;28;20576;-62
2023/08/14 07:20:58;;;;;;;6.45;3.83;;;;;;;24.42;66.97;100441.53;4106156;28;20035;-62
2023/08/14 07:23:01;;;;;;;6.70;3.45;;;;;;;24.50;66.91;100448.22;4099898;28;20094;-62
2023/08/14 07:25:05;;;;;;;8.35;3.55;;;;;;;24.58;66.92;100445.22;4099516;28;20051;-62
2023/08/14 07:27:08;;;;;;;7.03;3.53;;;;;;;24.66;67.05;100447.56;4099939;28;20130;-62
2023/08/14 07:29:12;;;;;;;9.43;3.47;;;;;;;24.77;66.68;100449.75;4100574;28;20177;-62
2023/08/14 07:31:14;;;;;;;;;;;;;;;24.81;66.51;100456.63;4073660;29;20514;-62
2023/08/14 07:33:17;;;;;;;6.63;3.55;;;;;;;24.85;66.55;100452.91;4081794;29;20009;-62
2023/08/14 07:35:20;;;;;;;4.40;3.20;;;;;;;24.91;66.69;100471.25;4102062;28;20086;-62
2023/08/14 07:37:23;;;;;;;7.90;3.65;;;;;;;24.93;66.38;100474.72;4096388;28;20114;-62
2023/08/14 07:39:26;;;;;;;9.65;3.05;;;;;;;24.97;66.18;100478.97;4103609;28;20070;-62
2023/08/14 07:41:29;;;;;;;5.57;3.22;;;;;;;24.99;66.52;100471.75;4100181;28;20043;-62
2023/08/14 07:43:31;;;;;;;5.22;3.20;;;;;;;24.96;66.13;100477.22;4107030;28;20405;-62
2023/08/14 07:45:35;;;;;;;6.60;3.35;;;;;;;25.01;65.79;100485.84;4099882;28;20466;-62
2023/08/14 07:47:37;;;;;;;;;;;;;;;24.97;66.18;100478.06;4098010;28;20077;-62
2023/08/14 07:49:40;;;;;;;5.53;2.95;;;;;;;25.02;65.88;100484.06;4084113;29;19979;-62
2023/08/14 07:51:43;;;;;;;7.50;3.03;;;;;;;25.03;65.67;100484.00;4096707;28;20039;-62
2023/08/14 07:53:46;;;;;;;5.35;3.22;;;;;;;25.05;65.94;100475.94;4083646;29;20032;-64
2023/08/14 07:55:49;;;;;;;8.10;2.95;;;;;;;24.98;66.00;100472.69;4101821;28;20386;-62
2023/08/14 07:57:52;;;;;;;6.57;3.08;;;;;;;25.04;65.94;100483.06;4080438;29;20659;-60
2023/08/14 07:59:56;;;;;;;4.53;2.87;;;;;;;25.20;65.42;100474.38;4106753;28;20039;-60
2023/08/14 08:02:00;;;;;;;5.13;2.75;;;;;;;25.29;65.27;100473.94;4083411;29;20287;-60
2023/08/14 08:04:03;;;;;;;;;;;;;;;25.49;64.62;100474.81;4084624;29;20040;-60
2023/08/14 08:06:06;;;;;;;6.05;3.13;;;;;;;25.58;64.89;100477.91;4106655;28;19922;-60
2023/08/14 08:08:09;;;;;;;5.97;2.47;;;;;;;25.56;64.96;100473.59;4090124;29;20561;-60
2023/08/14 08:10:12;;;;;;;4.97;2.92;;;;;;;25.55;65.70;100483.41;4090495;29;20049;-60
2023/08/14 08:12:15;;;;;;;7.20;3.20;;;;;;;25.58;65.72;100483.25;4105942;28;20497;-60
2023/08/14 08:14:19;;;;;;;4.25;2.58;;;;;;;25.57;65.38;100483.31;4107984;28;20420;-60
2023/08/14 08:16:22;;;;;;;6.28;3.25;;;;;;;25.64;65.01;100494.50;4111065;28;20097;-60
2023/08/14 08:18:27;;;;;;;8.25;4.10;;;;;;;25.74;64.44;100494.00;4112801;28;20035;-60
2023/08/14 08:20:30;;;;;;;;;;;;;;;25.89;63.85;100480.84;4109259;28;20517;-60
2023/08/14 08:22:33;;;;;;;6.28;3.38;;;;;;;25.86;64.03;100478.34;4100104;28;19965;-60
2023/08/14 08:24:36;;;;;;;4.15;2.85;;;;;;;25.72;64.62;100495.03;4095982;29;20043;-60
2023/08/14 08:26:38;;;;;;;6.65;2.90;;;;;;;25.61;65.17;100498.19;4103484;28;20131;-60
2023/08/14 08:28:41;;;;;;;3.53;2.63;;;;;;;25.54;65.44;100497.63;4099277;28;20452;-60
2023/08/14 08:30:44;;;;;;;7.10;2.90;;;;;;;25.55;65.79;100503.81;4111734;23;20055;-59
2023/08/14 08:32:47;;;;;;;4.40;3.13;;;;;;;25.48;65.53;100505.91;4093318;28;20036;-59
2023/08/14 08:34:51;;;;;;;7.05;3.42;;;;;;;25.41;65.90;100500.00;4096676;29;20233;-59
2023/08/14 08:36:54;;;;;;;;;;;;;;;25.31;66.36;100505.84;4098792;28;20047;-60
2023/08/14 08:38:57;;;;;;;4.38;2.70;;;;;;;25.28;66.70;100504.16;4093894;29;19922;-59
2023/08/14 08:41:02;;;;;;;4.72;2.63;;;;;;;25.30;66.69;100499.59;4100244;28;20043;-59
2023/08/14 08:43:05;;;;;;;4.47;2.85;;;;;;;25.41;66.44;100483.19;4099784;28;20067;-59
2023/08/14 08:45:11;;;;;;;4.80;3.37;;;;;;;25.40;66.32;100482.31;4082560;29;20414;-59
2023/08/14 08:47:16;;;;;;;8.55;3.55;;;;;;;25.41;66.63;100488.50;4092607;29;20130;-59
2023/08/14 08:49:17;;;;;;;;;;;;;;;25.25;66.76;100473.22;4100803;29;20046;-59
2023/08/14 08:51:23;;;;;;;6.63;2.70;;;;;;;25.28;67.04;100474.88;4099470;29;19980;-59
2023/08/14 08:53:26;;;;;;;5.28;2.83;;;;;;;25.34;66.89;100479.94;4100158;29;20039;-59
2023/08/14 08:55:29;;;;;;;3.10;2.33;;;;;;;25.36;67.24;100480.72;4083493;29;20134;-59
2023/08/14 08:57:32;;;;;;;6.20;2.83;;;;;;;25.40;67.53;100487.63;4098421;29;20129;-59
2023/08/14 08:59:41;;;;;;;4.18;2.72;;;;;;;25.32;66.83;100484.47;4067374;29;20577;-59
2023/08/14 09:01:44;;;;;;;10.95;3.38;;;;;;;25.28;66.44;100482.88;4097173;29;20039;-59
2023/08/14 09:03:47;;;;;;;5.53;3.10;;;;;;;25.48;66.25;100492.59;4098855;29;20047;-59
2023/08/14 09:05:52;;;;;;;4.93;2.92;;;;;;;25.71;65.66;100479.97;4083184;29;20040;-59
2023/08/14 09:07:56;;;;;;;7.45;3.15;;;;;;;25.96;64.92;100476.94;4091872;29;20074;-59
2023/08/14 09:10:00;;;;;;;4.35;2.92;;;;;;;26.11;64.44;100476.22;4098093;29;20067;-59
2023/08/14 09:12:03;;;;;;;7.28;3.08;;;;;;;26.25;63.91;100486.16;4079830;29;20462;-59
2023/08/14 09:14:06;;;;;;;5.07;2.73;;;;;;;26.21;63.23;100489.97;4080886;29;20537;-59
2023/08/14 09:16:14;;;;;;;4.93;2.50;;;;;;;26.31;63.56;100482.34;4096699;29;20066;-59
2023/08/14 09:18:17;;;;;;;5.80;3.05;;;;;;;26.51;63.34;100489.31;4079261;29;20095;-59
2023/08/14 09:20:20;;;;;;;5.32;2.85;;;;;;;26.67;62.66;100485.84;4096370;29;20096;-59
2023/08/14 09:22:32;;;;;;;6.32;2.72;;;;;;;26.67;62.67;100480.53;4093709;29;20114;-59
2023/08/14 09:24:37;;;;;;;6.15;2.78;;;;;;;26.76;62.65;100477.38;4096718;29;20125;-58
2023/08/14 09:26:42;;;;;;;7.32;2.88;;;;;;;26.84;62.54;100472.50;4097181;29;20544;-59
2023/08/14 09:28:45;;;;;;;3.92;2.95;;;;;;;26.92;61.49;100469.44;4095868;28;20047;-59
2023/08/14 09:30:48;;;;;;;4.28;2.40;;;;;;;26.83;61.38;100471.63;4095286;28;20039;-59
2023/08/14 09:32:51;;;;;;;3.60;2.53;;;;;;;26.69;62.11;100471.50;4081857;29;20051;-59
2023/08/14 09:34:59;;;;;;;6.80;3.00;;;;;;;26.60;62.23;100475.47;4099763;29;20045;-59
2023/08/14 09:37:02;;;;;;;7.65;3.58;;;;;;;26.71;62.55;100471.41;4097994;28;20043;-59